createdAt,value
2019-01-25T00:00:01.664Z,61.30
2019-01-25T00:01:01.652Z,57.00
2019-01-25T00:02:01.654Z,58.90
2019-01-25T00:03:03.426Z,53.80
2019-01-25T00:04:02.634Z,55.60
2019-01-25T00:05:01.615Z,55.00
2019-01-25T00:06:01.600Z,55.20
2019-01-25T00:07:01.608Z,51.70
2019-01-25T00:08:01.593Z,56.60
2019-01-25T00:09:01.585Z,53.30
2019-01-25T00:10:01.568Z,59.20
2019-01-25T00:11:01.566Z,54.50
2019-01-25T00:12:01.553Z,54.90
2019-01-25T00:13:01.539Z,52.10
2019-01-25T00:14:01.534Z,53.40
2019-01-25T00:15:01.522Z,59.20
2019-01-25T00:16:01.513Z,56.00
2019-01-25T00:17:01.587Z,54.40
2019-01-25T00:18:01.483Z,52.70
2019-01-25T00:19:01.475Z,53.50
2019-01-25T00:20:01.474Z,51.60
2019-01-25T00:21:01.464Z,54.00
2019-01-25T00:22:01.456Z,55.80
2019-01-25T00:23:01.456Z,52.90
2019-01-25T00:24:01.547Z,51.90
2019-01-25T00:25:01.471Z,50.60
2019-01-25T00:26:01.399Z,49.00
2019-01-25T00:27:01.403Z,52.80
2019-01-25T00:28:01.391Z,48.50
2019-01-25T00:29:01.378Z,49.70
2019-01-25T00:30:01.371Z,52.30
2019-01-25T00:31:01.354Z,51.50
2019-01-25T00:32:01.343Z,53.90
2019-01-25T00:33:01.368Z,51.10
2019-01-25T00:34:01.334Z,53.40
2019-01-25T00:35:01.308Z,52.50
2019-01-25T00:36:01.307Z,52.00
2019-01-25T00:37:01.295Z,54.10
2019-01-25T00:38:01.285Z,55.10
2019-01-25T00:39:01.285Z,54.20
2019-01-25T00:40:06.162Z,50.30
2019-01-25T00:41:02.258Z,51.10
2019-01-25T00:42:01.245Z,50.10
2019-01-25T00:43:01.235Z,50.00
2019-01-25T00:44:01.236Z,50.00
2019-01-25T00:45:01.222Z,50.30
2019-01-25T00:46:01.207Z,53.50
2019-01-25T00:47:01.191Z,51.90
2019-01-25T00:48:01.232Z,53.50
2019-01-25T00:49:01.176Z,54.60
2019-01-25T00:50:01.162Z,51.80
2019-01-25T00:51:01.153Z,51.60
2019-01-25T00:52:01.148Z,49.80
2019-01-25T00:53:01.134Z,50.40
2019-01-25T00:54:01.129Z,51.60
2019-01-25T00:55:01.105Z,51.50
2019-01-25T00:56:01.101Z,50.80
2019-01-25T00:57:01.097Z,52.70
2019-01-25T00:58:01.090Z,54.90
2019-01-25T00:59:01.088Z,54.00
2019-01-25T01:00:01.059Z,54.40
2019-01-25T01:01:01.056Z,51.90
2019-01-25T01:02:01.047Z,49.80
2019-01-25T01:03:01.032Z,50.60
2019-01-25T01:04:01.027Z,52.60
2019-01-25T01:05:01.009Z,50.90
2019-01-25T01:06:01.009Z,54.70
2019-01-25T01:07:00.989Z,55.00
2019-01-25T01:08:00.985Z,51.30
2019-01-25T01:09:00.979Z,50.30
2019-01-25T01:10:00.992Z,50.30
2019-01-25T01:11:00.959Z,49.80
2019-01-25T01:12:00.933Z,49.00
2019-01-25T01:13:00.940Z,51.60
2019-01-25T01:14:00.928Z,51.40
2019-01-25T01:15:00.902Z,51.50
2019-01-25T01:16:00.940Z,47.90
2019-01-25T01:17:00.893Z,50.00
2019-01-25T01:18:00.878Z,49.50
2019-01-25T01:19:00.878Z,50.00
2019-01-25T01:20:00.863Z,48.00
2019-01-25T01:21:00.852Z,48.30
2019-01-25T01:22:00.884Z,49.50
2019-01-25T01:23:00.822Z,49.20
2019-01-25T01:24:00.823Z,51.10
2019-01-25T01:25:00.817Z,48.00
2019-01-25T01:26:00.796Z,49.50
2019-01-25T01:27:00.796Z,49.50
2019-01-25T01:28:00.795Z,47.30
2019-01-25T01:29:00.786Z,50.80
2019-01-25T01:30:00.761Z,47.10
2019-01-25T01:31:00.753Z,46.90
2019-01-25T01:32:00.730Z,45.60
2019-01-25T01:33:00.721Z,49.20
2019-01-25T01:34:00.744Z,51.80
2019-01-25T01:35:00.706Z,49.90
2019-01-25T01:36:00.690Z,46.70
2019-01-25T01:37:00.687Z,48.00
2019-01-25T01:38:00.677Z,46.20
2019-01-25T01:39:00.675Z,47.10
2019-01-25T01:40:00.676Z,48.60
2019-01-25T01:41:00.640Z,47.80
2019-01-25T01:42:00.639Z,48.50
2019-01-25T01:43:00.633Z,46.00
2019-01-25T01:44:00.621Z,47.80
2019-01-25T01:45:00.619Z,48.40
2019-01-25T01:46:00.604Z,49.20
2019-01-25T01:47:00.578Z,47.50
2019-01-25T01:48:00.568Z,49.50
2019-01-25T01:49:00.568Z,47.70
2019-01-25T01:50:00.567Z,50.50
2019-01-25T01:51:00.598Z,49.10
2019-01-25T01:52:00.543Z,47.20
2019-01-25T01:53:00.529Z,49.20
2019-01-25T01:54:00.518Z,50.20
2019-01-25T01:55:00.499Z,48.20
2019-01-25T01:56:00.493Z,47.10
2019-01-25T01:57:00.490Z,49.60
2019-01-25T01:58:00.471Z,46.80
2019-01-25T01:59:00.472Z,48.10
2019-01-25T02:00:00.476Z,46.10
2019-01-25T02:01:00.451Z,48.70
2019-01-25T02:02:00.431Z,45.10
2019-01-25T02:03:00.436Z,49.60
2019-01-25T02:04:00.422Z,50.90
2019-01-25T02:05:00.417Z,47.90
2019-01-25T02:06:00.407Z,50.50
2019-01-25T02:07:00.424Z,51.10
2019-01-25T02:08:00.381Z,48.80
2019-01-25T02:09:00.368Z,48.10
2019-01-25T02:10:00.350Z,49.70
2019-01-25T02:11:00.336Z,47.00
2019-01-25T02:12:00.335Z,47.90
2019-01-25T02:13:00.350Z,48.60
2019-01-25T02:14:00.307Z,47.70
2019-01-25T02:15:00.310Z,48.40
2019-01-25T02:16:00.290Z,49.70
2019-01-25T02:17:00.291Z,49.60
2019-01-25T02:18:00.280Z,50.20
2019-01-25T02:19:00.269Z,47.90
2019-01-25T02:20:00.258Z,50.70
2019-01-25T02:21:00.250Z,50.20
2019-01-25T02:22:00.223Z,49.70
2019-01-25T02:23:00.226Z,51.00
2019-01-25T02:24:00.208Z,50.50
2019-01-25T02:25:00.197Z,51.90
2019-01-25T02:26:00.199Z,49.10
2019-01-25T02:27:00.185Z,50.60
2019-01-25T02:28:00.218Z,50.70
2019-01-25T02:29:00.168Z,49.40
2019-01-25T02:30:00.241Z,48.80
2019-01-25T02:31:00.137Z,50.20
2019-01-25T02:32:00.133Z,50.30
2019-01-25T02:33:00.113Z,52.60
2019-01-25T02:34:00.767Z,50.20
2019-01-25T02:35:00.212Z,51.70
2019-01-25T02:36:00.082Z,53.10
2019-01-25T02:37:00.077Z,49.60
2019-01-25T02:38:00.076Z,50.00
2019-01-25T02:39:00.053Z,54.60
2019-01-25T02:40:00.058Z,49.90
2019-01-25T02:41:00.048Z,49.70
2019-01-25T02:42:00.026Z,50.10
2019-01-25T02:43:00.021Z,52.50
2019-01-25T02:44:00.012Z,49.50
2019-01-25T02:45:00.030Z,50.20
2019-01-25T02:45:59.992Z,49.00
2019-01-25T02:46:59.970Z,48.40
2019-01-25T02:47:59.970Z,51.10
2019-01-25T02:48:59.954Z,51.20
2019-01-25T02:49:59.949Z,49.20
2019-01-25T02:50:59.958Z,51.00
2019-01-25T02:51:59.929Z,49.30
2019-01-25T02:53:03.832Z,49.60
2019-01-25T02:53:59.915Z,53.30
2019-01-25T02:54:59.908Z,46.70
2019-01-25T02:55:59.895Z,50.50
2019-01-25T02:56:59.868Z,49.00
2019-01-25T02:57:59.869Z,49.90
2019-01-25T02:58:59.853Z,48.80
2019-01-25T02:59:59.843Z,50.50
2019-01-25T03:00:59.872Z,47.50
2019-01-25T03:01:59.836Z,50.60
2019-01-25T03:02:59.825Z,51.70
2019-01-25T03:03:59.803Z,52.40
2019-01-25T03:04:59.791Z,48.50
2019-01-25T03:05:59.792Z,52.20
2019-01-25T03:06:59.792Z,49.40
2019-01-25T03:07:59.773Z,49.50
2019-01-25T03:08:59.772Z,52.80
2019-01-25T03:09:59.743Z,49.80
2019-01-25T03:10:59.741Z,51.20
2019-01-25T03:11:59.735Z,47.80
2019-01-25T03:12:59.706Z,48.20
2019-01-25T03:13:59.709Z,54.50
2019-01-25T03:14:59.699Z,51.10
2019-01-25T03:15:59.680Z,49.20
2019-01-25T03:16:59.709Z,50.40
2019-01-25T03:17:59.660Z,53.80
2019-01-25T03:18:59.665Z,51.20
2019-01-25T03:19:59.647Z,48.90
2019-01-25T03:20:59.641Z,51.80
2019-01-25T03:21:59.631Z,53.70
2019-01-25T03:22:59.622Z,50.50
2019-01-25T03:23:59.607Z,48.00
2019-01-25T03:24:59.595Z,48.70
2019-01-25T03:25:59.599Z,52.00
2019-01-25T03:26:59.574Z,54.00
2019-01-25T03:27:59.574Z,48.90
2019-01-25T03:28:59.553Z,50.50
2019-01-25T03:29:59.534Z,52.00
2019-01-25T03:30:59.525Z,50.00
2019-01-25T03:31:59.524Z,52.00
2019-01-25T03:32:59.514Z,53.10
2019-01-25T03:33:59.504Z,49.50
2019-01-25T03:34:59.488Z,53.40
2019-01-25T03:35:59.478Z,48.50
2019-01-25T03:36:59.466Z,51.60
2019-01-25T03:37:59.461Z,50.90
2019-01-25T03:38:59.457Z,52.60
2019-01-25T03:39:59.437Z,51.60
2019-01-25T03:40:59.428Z,48.40
2019-01-25T03:41:59.413Z,50.00
2019-01-25T03:42:59.402Z,50.50
2019-01-25T03:43:59.433Z,51.20
2019-01-25T03:44:59.391Z,47.60
2019-01-25T03:45:59.371Z,50.10
2019-01-25T03:46:59.363Z,52.30
2019-01-25T03:47:59.349Z,51.00
2019-01-25T03:48:59.345Z,51.10
2019-01-25T03:49:59.343Z,49.40
2019-01-25T03:50:59.331Z,50.40
2019-01-25T03:52:08.282Z,51.30
2019-01-25T03:52:59.304Z,50.40
2019-01-25T03:53:59.290Z,53.60
2019-01-25T03:54:59.293Z,49.80
2019-01-25T03:55:59.287Z,47.20
2019-01-25T03:56:59.263Z,51.00
2019-01-25T03:57:59.255Z,50.80
2019-01-25T03:58:59.244Z,52.30
2019-01-25T03:59:59.230Z,48.80
2019-01-25T04:00:59.226Z,51.20
2019-01-25T04:01:59.214Z,53.30
2019-01-25T04:02:59.201Z,49.10
2019-01-25T04:03:59.188Z,51.00
2019-01-25T04:04:59.181Z,51.60
2019-01-25T04:05:59.177Z,50.90
2019-01-25T04:06:59.157Z,48.80
2019-01-25T04:07:59.151Z,51.90
2019-01-25T04:08:59.145Z,51.00
2019-01-25T04:09:59.129Z,51.90
2019-01-25T04:11:03.611Z,52.60
2019-01-25T04:12:00.110Z,49.30
2019-01-25T04:12:59.099Z,50.70
2019-01-25T04:13:59.091Z,49.50
2019-01-25T04:14:59.082Z,49.70
2019-01-25T04:15:59.081Z,51.30
2019-01-25T04:16:59.056Z,52.90
2019-01-25T04:17:59.045Z,50.80
2019-01-25T04:18:59.040Z,47.90
2019-01-25T04:19:59.032Z,50.30
2019-01-25T04:20:59.022Z,51.70
2019-01-25T04:21:59.008Z,51.40
2019-01-25T04:22:58.998Z,54.10
2019-01-25T04:23:58.991Z,56.00
2019-01-25T04:24:59.005Z,53.00
2019-01-25T04:25:59.004Z,48.70
2019-01-25T04:26:59.009Z,54.40
2019-01-25T04:27:58.945Z,49.50
2019-01-25T04:28:58.935Z,51.20
2019-01-25T04:29:58.930Z,54.70
2019-01-25T04:30:58.921Z,53.50
2019-01-25T04:31:58.910Z,53.10
2019-01-25T04:32:58.897Z,54.10
2019-01-25T04:33:58.924Z,56.90
2019-01-25T04:34:58.877Z,54.70
2019-01-25T04:35:58.866Z,54.90
2019-01-25T04:36:58.881Z,52.80
2019-01-25T04:37:58.842Z,55.40
2019-01-25T04:38:58.834Z,57.20
2019-01-25T04:39:58.831Z,52.60
2019-01-25T04:40:58.813Z,58.00
2019-01-25T04:41:58.806Z,59.60
2019-01-25T04:42:58.803Z,56.50
2019-01-25T04:43:58.797Z,53.80
2019-01-25T04:44:58.775Z,59.50
2019-01-25T04:45:58.766Z,56.10
2019-01-25T04:46:58.787Z,56.20
2019-01-25T04:47:58.743Z,55.40
2019-01-25T04:48:58.728Z,56.20
2019-01-25T04:49:58.718Z,54.30
2019-01-25T04:50:58.707Z,56.60
2019-01-25T04:51:58.705Z,54.80
2019-01-25T04:52:58.698Z,53.60
2019-01-25T04:53:58.677Z,55.30
2019-01-25T04:54:58.672Z,56.40
2019-01-25T04:56:00.162Z,54.30
2019-01-25T04:56:58.657Z,53.40
2019-01-25T04:57:58.645Z,52.00
2019-01-25T04:58:58.637Z,53.00
2019-01-25T04:59:58.619Z,56.10
2019-01-25T05:00:58.610Z,55.80
2019-01-25T05:01:58.598Z,54.10
2019-01-25T05:02:58.600Z,53.20
2019-01-25T05:03:58.590Z,53.80
2019-01-25T05:04:58.572Z,52.70
2019-01-25T05:05:58.562Z,53.50
2019-01-25T05:06:58.549Z,53.60
2019-01-25T05:07:58.536Z,54.10
2019-01-25T05:08:58.532Z,55.30
2019-01-25T05:09:58.531Z,52.30
2019-01-25T05:10:58.507Z,53.60
2019-01-25T05:11:58.495Z,53.50
2019-01-25T05:12:58.487Z,53.20
2019-01-25T05:13:58.477Z,54.70
2019-01-25T05:14:58.483Z,53.20
2019-01-25T05:15:58.457Z,52.20
2019-01-25T05:16:58.444Z,51.40
2019-01-25T05:17:58.433Z,53.10
2019-01-25T05:18:58.427Z,50.90
2019-01-25T05:19:58.425Z,52.80
2019-01-25T05:20:58.405Z,50.90
2019-01-25T05:21:58.408Z,48.90
2019-01-25T05:22:58.392Z,54.30
2019-01-25T05:23:58.373Z,53.90
2019-01-25T05:24:58.378Z,52.90
2019-01-25T05:25:58.355Z,49.60
2019-01-25T05:26:58.341Z,100.60
2019-01-25T05:27:58.338Z,114.80
2019-01-25T05:28:58.326Z,113.70
2019-01-25T05:29:58.368Z,76.90
2019-01-25T05:30:58.308Z,60.80
2019-01-25T05:31:58.292Z,58.80
2019-01-25T05:32:58.283Z,56.70
2019-01-25T05:33:59.366Z,57.90
2019-01-25T05:34:58.270Z,57.70
2019-01-25T05:35:58.265Z,57.40
2019-01-25T05:36:58.240Z,55.60
2019-01-25T05:37:58.227Z,51.70
2019-01-25T05:38:58.218Z,55.60
2019-01-25T05:39:58.210Z,55.80
2019-01-25T05:40:58.207Z,55.70
2019-01-25T05:41:58.188Z,56.60
2019-01-25T05:42:58.177Z,55.60
2019-01-25T05:43:58.167Z,59.20
2019-01-25T05:44:58.159Z,58.90
2019-01-25T05:45:58.178Z,56.40
2019-01-25T05:46:58.148Z,56.40
2019-01-25T05:47:58.133Z,61.00
2019-01-25T05:48:58.123Z,56.10
2019-01-25T05:49:58.112Z,55.40
2019-01-25T05:50:58.097Z,57.90
2019-01-25T05:51:58.104Z,60.30
2019-01-25T05:52:58.074Z,58.20
2019-01-25T05:53:58.066Z,58.50
2019-01-25T05:54:58.063Z,55.50
2019-01-25T05:55:58.087Z,61.30
2019-01-25T05:56:58.038Z,60.50
2019-01-25T05:57:58.045Z,61.20
2019-01-25T05:58:58.021Z,63.50
2019-01-25T05:59:58.012Z,58.30
2019-01-25T06:00:58.000Z,58.20
2019-01-25T06:01:57.997Z,56.70
2019-01-25T06:02:57.980Z,59.10
2019-01-25T06:03:57.974Z,60.40
2019-01-25T06:04:57.953Z,57.80
2019-01-25T06:05:57.947Z,56.40
2019-01-25T06:06:57.973Z,60.10
2019-01-25T06:07:57.925Z,62.50
2019-01-25T06:08:57.920Z,64.00
2019-01-25T06:09:57.919Z,60.90
2019-01-25T06:10:57.897Z,61.30
2019-01-25T06:11:57.888Z,59.00
2019-01-25T06:12:57.880Z,55.90
2019-01-25T06:13:57.863Z,61.20
2019-01-25T06:14:57.867Z,60.00
2019-01-25T06:15:57.846Z,58.30
2019-01-25T06:16:57.836Z,56.80
2019-01-25T06:17:57.829Z,60.80
2019-01-25T06:18:57.812Z,60.70
2019-01-25T06:19:57.811Z,58.80
2019-01-25T06:20:57.809Z,62.40
2019-01-25T06:21:57.785Z,60.60
2019-01-25T06:22:57.792Z,60.20
2019-01-25T06:23:57.765Z,66.50
2019-01-25T06:24:57.759Z,63.50
2019-01-25T06:25:57.745Z,58.90
2019-01-25T06:26:57.730Z,65.50
2019-01-25T06:27:57.736Z,63.90
2019-01-25T06:28:57.724Z,69.10
2019-01-25T06:29:57.699Z,63.60
2019-01-25T06:30:57.689Z,60.10
2019-01-25T06:31:57.678Z,63.20
2019-01-25T06:32:57.673Z,62.80
2019-01-25T06:33:57.692Z,62.40
2019-01-25T06:34:57.650Z,62.30
2019-01-25T06:35:57.635Z,60.80
2019-01-25T06:36:57.631Z,63.40
2019-01-25T06:37:57.621Z,64.20
2019-01-25T06:38:57.612Z,62.50
2019-01-25T06:39:57.610Z,58.40
2019-01-25T06:40:57.592Z,61.50
2019-01-25T06:41:57.573Z,61.50
2019-01-25T06:42:57.573Z,60.60
2019-01-25T06:43:57.557Z,60.40
2019-01-25T06:44:57.547Z,63.20
2019-01-25T06:45:57.556Z,57.60
2019-01-25T06:46:57.529Z,63.00
2019-01-25T06:47:57.511Z,60.20
2019-01-25T06:48:57.508Z,59.60
2019-01-25T06:49:57.492Z,61.30
2019-01-25T06:50:57.486Z,61.30
2019-01-25T06:51:57.489Z,61.80
2019-01-25T06:52:57.467Z,61.00
2019-01-25T06:53:57.450Z,64.80
2019-01-25T06:54:57.446Z,61.20
2019-01-25T06:55:57.439Z,62.30
2019-01-25T06:56:57.425Z,59.70
2019-01-25T06:57:57.415Z,62.60
2019-01-25T06:58:57.405Z,61.20
2019-01-25T06:59:57.395Z,59.80
2019-01-25T07:00:57.394Z,62.10
2019-01-25T07:01:57.368Z,58.90
2019-01-25T07:02:57.359Z,63.30
2019-01-25T07:03:57.361Z,63.30
2019-01-25T07:04:57.338Z,58.60
2019-01-25T07:05:57.335Z,61.00
2019-01-25T07:06:57.327Z,62.10
2019-01-25T07:07:57.309Z,61.60
2019-01-25T07:08:57.302Z,64.40
2019-01-25T07:09:57.288Z,61.80
2019-01-25T07:10:57.276Z,63.10
2019-01-25T07:11:57.273Z,62.90
2019-01-25T07:12:57.266Z,63.50
2019-01-25T07:13:57.249Z,60.00
2019-01-25T07:14:57.243Z,58.80
2019-01-25T07:15:57.233Z,64.00
2019-01-25T07:16:57.216Z,67.70
2019-01-25T07:17:57.223Z,61.70
2019-01-25T07:18:57.201Z,65.10
2019-01-25T07:19:57.194Z,60.60
2019-01-25T07:20:57.212Z,62.00
2019-01-25T07:21:57.172Z,61.80
2019-01-25T07:22:57.160Z,66.50
2019-01-25T07:23:57.150Z,62.10
2019-01-25T07:24:57.468Z,61.90
2019-01-25T07:25:57.124Z,63.00
2019-01-25T07:26:57.152Z,64.80
2019-01-25T07:27:57.105Z,68.20
2019-01-25T07:28:57.094Z,66.70
2019-01-25T07:29:57.123Z,64.00
2019-01-25T07:30:57.075Z,63.00
2019-01-25T07:31:57.064Z,65.60
2019-01-25T07:32:57.070Z,66.20
2019-01-25T07:33:57.063Z,63.70
2019-01-25T07:34:57.040Z,65.40
2019-01-25T07:35:57.023Z,66.40
2019-01-25T07:36:57.020Z,63.10
2019-01-25T07:37:57.009Z,73.40
2019-01-25T07:38:57.004Z,69.60
2019-01-25T07:39:56.987Z,66.70
2019-01-25T07:40:56.980Z,66.30
2019-01-25T07:41:59.376Z,64.80
2019-01-25T07:42:57.970Z,66.90
2019-01-25T07:43:56.997Z,64.30
2019-01-25T07:44:56.931Z,66.70
2019-01-25T07:45:56.923Z,64.60
2019-01-25T07:46:56.910Z,63.90
2019-01-25T07:47:56.942Z,67.40
2019-01-25T07:48:56.905Z,68.00
2019-01-25T07:49:56.882Z,64.40
2019-01-25T07:50:56.873Z,65.50
2019-01-25T07:51:56.864Z,67.20
2019-01-25T07:52:56.881Z,63.30
2019-01-25T07:53:56.843Z,62.00
2019-01-25T07:54:56.946Z,66.60
2019-01-25T07:55:56.830Z,70.20
2019-01-25T07:56:56.860Z,66.80
2019-01-25T07:57:56.812Z,66.90
2019-01-25T07:58:56.813Z,68.70
2019-01-25T07:59:56.819Z,65.60
2019-01-25T08:00:56.773Z,66.00
2019-01-25T08:01:56.757Z,65.50
2019-01-25T08:02:56.751Z,62.90
2019-01-25T08:03:56.754Z,67.40
2019-01-25T08:04:56.733Z,64.80
2019-01-25T08:05:56.724Z,63.60
2019-01-25T08:06:56.727Z,64.60
2019-01-25T08:07:56.707Z,62.00
2019-01-25T08:08:56.717Z,63.70
2019-01-25T08:09:56.674Z,59.30
2019-01-25T08:10:56.675Z,58.20
2019-01-25T08:11:56.663Z,59.40
2019-01-25T08:12:56.649Z,59.60
2019-01-25T08:13:56.647Z,59.50
2019-01-25T08:14:56.632Z,56.20
2019-01-25T08:15:56.638Z,55.30
2019-01-25T08:16:56.601Z,55.10
2019-01-25T08:17:56.596Z,55.80
2019-01-25T08:18:56.590Z,51.50
2019-01-25T08:19:56.618Z,53.00
2019-01-25T08:20:56.582Z,54.60
2019-01-25T08:21:56.560Z,55.90
2019-01-25T08:22:56.593Z,50.50
2019-01-25T08:23:56.541Z,51.50
2019-01-25T08:24:56.520Z,49.70
2019-01-25T08:25:56.533Z,50.20
2019-01-25T08:26:56.509Z,53.00
2019-01-25T08:27:56.497Z,51.80
2019-01-25T08:28:56.517Z,54.40
2019-01-25T08:29:56.497Z,52.80
2019-01-25T08:30:56.561Z,52.40
2019-01-25T08:31:56.460Z,53.80
2019-01-25T08:32:56.455Z,52.80
2019-01-25T08:33:56.445Z,52.00
2019-01-25T08:34:56.449Z,56.10
2019-01-25T08:35:56.410Z,57.70
2019-01-25T08:36:56.406Z,54.50
2019-01-25T08:37:56.409Z,61.00
2019-01-25T08:38:56.374Z,61.50
2019-01-25T08:39:56.383Z,64.00
2019-01-25T08:40:56.379Z,67.30
2019-01-25T08:41:56.351Z,67.80
2019-01-25T08:42:56.359Z,68.00
2019-01-25T08:43:56.332Z,70.90
2019-01-25T08:44:56.316Z,71.20
2019-01-25T08:45:56.306Z,64.00
2019-01-25T08:46:56.301Z,70.60
2019-01-25T08:47:56.311Z,72.70
2019-01-25T08:48:56.275Z,67.00
2019-01-25T08:49:57.925Z,74.00
2019-01-25T08:50:56.422Z,72.20
2019-01-25T08:51:56.342Z,69.20
2019-01-25T08:52:56.245Z,73.10
2019-01-25T08:53:56.235Z,68.60
2019-01-25T08:54:56.214Z,70.10
2019-01-25T08:55:56.204Z,74.70
2019-01-25T08:56:56.187Z,72.10
2019-01-25T08:57:56.178Z,66.20
2019-01-25T08:58:56.181Z,71.60
2019-01-25T08:59:56.165Z,72.60
2019-01-25T09:00:56.152Z,67.70
2019-01-25T09:01:56.137Z,69.40
2019-01-25T09:02:56.142Z,70.00
2019-01-25T09:03:56.115Z,70.80
2019-01-25T09:04:56.120Z,69.30
2019-01-25T09:05:56.101Z,70.20
2019-01-25T09:06:56.083Z,66.70
2019-01-25T09:07:56.073Z,66.90
2019-01-25T09:08:56.063Z,68.30
2019-01-25T09:09:56.065Z,67.80
2019-01-25T09:10:56.043Z,67.40
2019-01-25T09:11:56.039Z,70.30
2019-01-25T09:12:56.028Z,71.20
2019-01-25T09:13:56.011Z,69.60
2019-01-25T09:14:56.001Z,71.00
2019-01-25T09:15:56.005Z,69.70
2019-01-25T09:16:55.985Z,68.20
2019-01-25T09:17:55.974Z,69.20
2019-01-25T09:18:55.967Z,69.70
2019-01-25T09:19:55.949Z,69.60
2019-01-25T09:20:55.948Z,71.30
2019-01-25T09:21:55.927Z,72.90
2019-01-25T09:22:55.926Z,68.90
2019-01-25T09:23:55.919Z,70.10
2019-01-25T09:24:55.908Z,70.00
2019-01-25T09:26:00.948Z,70.60
2019-01-25T09:26:56.901Z,64.90
2019-01-25T09:27:55.866Z,70.20
2019-01-25T09:28:55.861Z,67.00
2019-01-25T09:29:55.846Z,68.90
2019-01-25T09:30:55.841Z,74.80
2019-01-25T09:31:55.836Z,68.60
2019-01-25T09:32:55.814Z,71.40
2019-01-25T09:33:55.818Z,75.80
2019-01-25T09:34:55.800Z,71.30
2019-01-25T09:35:55.786Z,72.40
2019-01-25T09:36:55.785Z,74.60
2019-01-25T09:37:55.765Z,66.90
2019-01-25T09:38:55.752Z,67.00
2019-01-25T09:39:55.742Z,67.30
2019-01-25T09:40:55.739Z,70.00
2019-01-25T09:41:55.739Z,66.40
2019-01-25T09:42:55.719Z,70.80
2019-01-25T09:43:55.703Z,66.20
2019-01-25T09:44:55.708Z,62.70
2019-01-25T09:45:55.685Z,64.40
2019-01-25T09:46:55.670Z,62.50
2019-01-25T09:47:55.659Z,65.30
2019-01-25T09:48:55.680Z,60.10
2019-01-25T09:49:55.644Z,59.30
2019-01-25T09:50:55.636Z,56.90
2019-01-25T09:51:55.619Z,58.00
2019-01-25T09:52:55.612Z,59.40
2019-01-25T09:53:55.607Z,54.40
2019-01-25T09:54:55.585Z,52.30
2019-01-25T09:55:55.581Z,52.10
2019-01-25T09:56:55.578Z,53.10
2019-01-25T09:57:55.562Z,54.20
2019-01-25T09:58:55.550Z,52.90
2019-01-25T09:59:55.544Z,52.50
2019-01-25T10:00:55.525Z,52.10
2019-01-25T10:01:55.519Z,52.80
2019-01-25T10:02:55.512Z,51.50
2019-01-25T10:03:55.498Z,51.90
2019-01-25T10:04:55.563Z,49.20
2019-01-25T10:05:55.474Z,49.60
2019-01-25T10:06:55.463Z,48.20
2019-01-25T10:07:55.451Z,46.30
2019-01-25T10:08:55.449Z,49.80
2019-01-25T10:09:55.429Z,44.20
2019-01-25T10:10:55.426Z,45.50
2019-01-25T10:11:55.415Z,45.30
2019-01-25T10:12:55.398Z,48.20
2019-01-25T10:13:55.431Z,45.10
2019-01-25T10:14:55.380Z,46.00
2019-01-25T10:15:55.371Z,42.10
2019-01-25T10:16:55.355Z,43.20
2019-01-25T10:17:55.345Z,45.00
2019-01-25T10:18:55.343Z,44.60
2019-01-25T10:19:55.369Z,43.90
2019-01-25T10:20:55.319Z,45.50
2019-01-25T10:21:55.318Z,44.50
2019-01-25T10:22:55.300Z,43.20
2019-01-25T10:23:55.287Z,39.70
2019-01-25T10:24:55.272Z,41.30
2019-01-25T10:25:55.269Z,41.60
2019-01-25T10:26:55.260Z,41.80
2019-01-25T10:27:55.240Z,41.30
2019-01-25T10:28:55.234Z,41.40
2019-01-25T10:29:55.465Z,40.20
2019-01-25T10:30:55.222Z,40.70
2019-01-25T10:31:55.220Z,39.70
2019-01-25T10:32:55.195Z,43.10
2019-01-25T10:33:55.183Z,41.70
2019-01-25T10:34:55.170Z,44.00
2019-01-25T10:35:55.162Z,44.50
2019-01-25T10:36:55.196Z,43.90
2019-01-25T10:37:55.143Z,41.10
2019-01-25T10:38:55.128Z,40.70
2019-01-25T10:39:55.121Z,43.40
2019-01-25T10:40:55.110Z,41.20
2019-01-25T10:41:55.097Z,42.90
2019-01-25T10:42:55.106Z,43.10
2019-01-25T10:43:55.079Z,42.50
2019-01-25T10:44:55.064Z,40.90
2019-01-25T10:45:55.052Z,43.40
2019-01-25T10:46:55.053Z,41.20
2019-01-25T10:47:55.038Z,43.30
2019-01-25T10:48:55.041Z,39.30
2019-01-25T10:49:55.018Z,37.90
2019-01-25T10:50:55.005Z,40.50
2019-01-25T10:51:54.991Z,40.90
2019-01-25T10:52:54.989Z,41.10
2019-01-25T10:53:54.985Z,41.70
2019-01-25T10:54:54.962Z,38.70
2019-01-25T10:55:54.966Z,40.80
2019-01-25T10:56:54.945Z,40.20
2019-01-25T10:57:54.928Z,40.20
2019-01-25T10:58:54.918Z,38.80
2019-01-25T10:59:54.913Z,38.80
2019-01-25T11:00:54.898Z,40.50
2019-01-25T11:01:54.900Z,39.10
2019-01-25T11:02:58.385Z,38.30
2019-01-25T11:03:54.872Z,41.60
2019-01-25T11:04:54.864Z,41.40
2019-01-25T11:05:54.853Z,38.50
2019-01-25T11:06:54.836Z,40.60
2019-01-25T11:07:54.832Z,38.80
2019-01-25T11:08:54.816Z,38.70
2019-01-25T11:09:54.845Z,39.50
2019-01-25T11:10:54.794Z,42.40
2019-01-25T11:11:54.782Z,43.10
2019-01-25T11:13:00.713Z,38.80
2019-01-25T11:13:55.763Z,43.10
2019-01-25T11:14:54.753Z,42.00
2019-01-25T11:15:54.750Z,41.90
2019-01-25T11:16:54.730Z,39.40
2019-01-25T11:17:54.720Z,40.60
2019-01-25T11:18:54.711Z,43.50
2019-01-25T11:19:54.713Z,41.80
2019-01-25T11:20:54.704Z,41.70
2019-01-25T11:21:54.679Z,41.30
2019-01-25T11:22:54.672Z,41.20
2019-01-25T11:23:54.661Z,44.30
2019-01-25T11:24:54.690Z,41.50
2019-01-25T11:25:55.382Z,38.10
2019-01-25T11:26:54.633Z,40.60
2019-01-25T11:27:54.622Z,40.20
2019-01-25T11:28:54.604Z,38.30
2019-01-25T11:29:54.600Z,40.20
2019-01-25T11:30:54.630Z,41.20
2019-01-25T11:31:54.581Z,38.40
2019-01-25T11:32:54.568Z,39.50
2019-01-25T11:33:54.552Z,38.70
2019-01-25T11:34:54.546Z,38.60
2019-01-25T11:35:54.561Z,39.20
2019-01-25T11:36:54.529Z,39.70
2019-01-25T11:37:54.522Z,39.80
2019-01-25T11:38:54.505Z,39.00
2019-01-25T11:39:54.493Z,39.90
2019-01-25T11:40:54.478Z,41.90
2019-01-25T11:41:54.468Z,41.00
2019-01-25T11:42:54.472Z,40.20
2019-01-25T11:43:54.447Z,37.60
2019-01-25T11:44:54.438Z,39.80
2019-01-25T11:45:54.525Z,36.40
2019-01-25T11:46:54.421Z,36.90
2019-01-25T11:47:54.418Z,37.40
2019-01-25T11:48:54.408Z,38.40
2019-01-25T11:49:54.388Z,35.00
2019-01-25T11:50:54.378Z,35.10
2019-01-25T11:51:54.374Z,36.40
2019-01-25T11:52:54.372Z,39.30
2019-01-25T11:53:54.366Z,37.00
2019-01-25T11:54:54.339Z,41.70
2019-01-25T11:55:54.333Z,38.40
2019-01-25T11:56:54.311Z,39.80
2019-01-25T11:57:54.300Z,38.10
2019-01-25T11:58:54.307Z,38.30
2019-01-25T11:59:54.289Z,40.50
2019-01-25T12:00:54.274Z,43.00
2019-01-25T12:01:54.266Z,40.40
2019-01-25T12:02:54.258Z,42.90
2019-01-25T12:03:54.254Z,40.50
2019-01-25T12:04:54.228Z,41.10
2019-01-25T12:05:54.220Z,40.60
2019-01-25T12:06:54.207Z,41.90
2019-01-25T12:07:54.202Z,39.20
2019-01-25T12:08:54.201Z,40.10
2019-01-25T12:09:54.177Z,42.60
2019-01-25T12:10:54.166Z,41.10
2019-01-25T12:11:54.163Z,44.90
2019-01-25T12:12:54.154Z,41.00
2019-01-25T12:13:54.151Z,41.70
2019-01-25T12:14:54.125Z,39.30
2019-01-25T12:15:54.120Z,40.60
2019-01-25T12:16:54.109Z,41.70
2019-01-25T12:17:54.096Z,42.00
2019-01-25T12:18:54.114Z,41.90
2019-01-25T12:19:54.104Z,40.70
2019-01-25T12:20:54.067Z,45.20
2019-01-25T12:21:54.060Z,42.10
2019-01-25T12:22:54.048Z,42.40
2019-01-25T12:23:54.051Z,42.50
2019-01-25T12:24:54.027Z,43.80
2019-01-25T12:25:54.024Z,43.90
2019-01-25T12:26:54.003Z,43.50
2019-01-25T12:27:53.997Z,43.50
2019-01-25T12:28:53.987Z,43.20
2019-01-25T12:29:54.756Z,42.40
2019-01-25T12:30:54.157Z,46.90
2019-01-25T12:31:53.956Z,44.40
2019-01-25T12:32:54.032Z,43.50
2019-01-25T12:33:54.342Z,44.60
2019-01-25T12:34:54.168Z,45.90
2019-01-25T12:35:53.933Z,42.70
2019-01-25T12:36:54.006Z,42.70
2019-01-25T12:37:53.905Z,44.00
2019-01-25T12:38:58.949Z,45.00
2019-01-25T12:39:54.025Z,44.00
2019-01-25T12:40:54.735Z,43.90
2019-01-25T12:41:54.062Z,45.20
2019-01-25T12:42:54.159Z,46.20
2019-01-25T12:43:54.119Z,43.90
2019-01-25T12:44:54.134Z,46.30
2019-01-25T12:45:55.067Z,44.60
2019-01-25T12:46:54.242Z,45.10
2019-01-25T12:47:54.723Z,42.10
2019-01-25T12:48:53.909Z,45.80
2019-01-25T12:49:53.817Z,43.50
2019-01-25T12:50:53.972Z,46.30
2019-01-25T12:51:54.057Z,44.80